createdAt,value
2019-05-03T00:02:34.142Z,99.90
2019-05-03T00:07:42.046Z,99.90
2019-05-03T00:12:48.182Z,99.90
2019-05-03T00:17:54.356Z,99.90
2019-05-03T00:23:00.235Z,99.90
2019-05-03T00:28:06.212Z,99.90
2019-05-03T00:33:12.276Z,99.90
2019-05-03T00:38:18.476Z,99.90
2019-05-03T00:43:24.635Z,99.90
2019-05-03T00:48:32.489Z,99.90
2019-05-03T00:53:38.307Z,99.90
2019-05-03T00:58:52.955Z,99.90
2019-05-03T01:03:59.301Z,99.90
2019-05-03T01:09:08.537Z,99.90
2019-05-03T01:14:15.370Z,99.90
2019-05-03T01:19:22.727Z,99.90
2019-05-03T01:24:28.715Z,99.90
2019-05-03T01:29:34.802Z,99.90
2019-05-03T01:34:41.687Z,99.90
2019-05-03T01:39:47.966Z,99.90
2019-05-03T01:44:54.050Z,99.90
2019-05-03T01:50:12.153Z,99.90
2019-05-03T01:55:18.408Z,99.90
2019-05-03T02:00:26.642Z,99.90
2019-05-03T02:05:48.248Z,99.90
2019-05-03T02:10:54.328Z,99.90
2019-05-03T02:16:02.274Z,99.90
2019-05-03T02:21:08.417Z,99.90
2019-05-03T02:26:14.815Z,99.90
2019-05-03T02:31:23.246Z,99.90
2019-05-03T02:36:28.502Z,99.90
2019-05-03T02:41:34.466Z,99.90
2019-05-03T02:47:15.914Z,99.90
2019-05-03T02:52:37.958Z,99.90
2019-05-03T02:57:46.648Z,99.90
2019-05-03T03:02:52.126Z,99.90
2019-05-03T03:07:58.728Z,99.90
2019-05-03T03:13:06.287Z,99.90
2019-05-03T03:18:15.792Z,99.90
2019-05-03T03:23:26.199Z,99.90
2019-05-03T03:28:35.957Z,99.90
2019-05-03T03:33:41.189Z,99.90
2019-05-03T03:38:47.358Z,99.90
2019-05-03T03:43:55.868Z,99.90
2019-05-03T03:49:02.693Z,99.90
2019-05-03T03:54:10.161Z,99.90
2019-05-03T03:59:16.393Z,99.90
2019-05-03T04:04:25.760Z,99.90
2019-05-03T04:09:30.876Z,99.90
2019-05-03T04:14:45.368Z,99.90
2019-05-03T04:19:55.860Z,99.90
2019-05-03T04:25:01.201Z,99.90
2019-05-03T04:30:07.592Z,99.90
2019-05-03T04:35:16.462Z,99.90
2019-05-03T04:40:21.575Z,99.90
2019-05-03T04:45:27.650Z,99.90
2019-05-03T04:50:36.344Z,99.90
2019-05-03T04:55:41.385Z,99.90
2019-05-03T05:00:47.331Z,99.90
2019-05-03T05:05:55.512Z,99.90
2019-05-03T05:11:01.130Z,99.90
2019-05-03T05:16:07.280Z,99.90
2019-05-03T05:21:25.250Z,99.90
2019-05-03T05:26:39.219Z,99.90
2019-05-03T05:31:45.298Z,99.90
2019-05-03T05:36:51.287Z,99.90
2019-05-03T05:41:57.342Z,99.90
2019-05-03T05:47:16.278Z,99.90
2019-05-03T05:52:24.395Z,99.90
2019-05-03T05:57:37.846Z,99.90
2019-05-03T06:02:44.701Z,99.90
2019-05-03T06:08:09.628Z,99.90
2019-05-03T06:13:28.836Z,99.90
2019-05-03T06:18:54.293Z,99.90
2019-05-03T06:24:04.624Z,99.90
2019-05-03T06:29:12.425Z,99.90
2019-05-03T06:34:18.165Z,99.90
2019-05-03T06:39:24.898Z,99.90
2019-05-03T06:44:31.149Z,99.90
2019-05-03T06:49:39.181Z,99.90
2019-05-03T06:54:45.046Z,99.90
2019-05-03T06:59:56.413Z,99.90
2019-05-03T07:05:04.986Z,99.90
2019-05-03T07:10:29.191Z,99.90
2019-05-03T07:15:35.279Z,99.90
2019-05-03T07:20:47.794Z,99.90
2019-05-03T07:25:55.162Z,99.90
2019-05-03T07:31:01.317Z,99.90
2019-05-03T07:36:07.303Z,99.90
2019-05-03T07:41:14.926Z,99.90
2019-05-03T07:46:21.048Z,99.90
2019-05-03T07:51:27.110Z,99.90
2019-05-03T07:56:37.185Z,99.90
2019-05-03T08:01:46.821Z,99.90
2019-05-03T08:06:55.042Z,99.80
2019-05-03T08:12:01.295Z,99.60
2019-05-03T08:17:07.227Z,99.20
2019-05-03T08:22:14.961Z,99.60
2019-05-03T08:27:21.230Z,99.50
2019-05-03T08:32:45.289Z,99.50
2019-05-03T08:38:01.511Z,99.40
2019-05-03T08:43:07.702Z,99.60
2019-05-03T08:48:15.221Z,99.50
2019-05-03T08:53:21.414Z,99.40
2019-05-03T08:58:27.381Z,99.40
2019-05-03T09:03:36.289Z,99.20
2019-05-03T09:08:41.147Z,99.20
2019-05-03T09:13:55.777Z,99.10
2019-05-03T09:19:02.039Z,99.00
2019-05-03T09:24:09.640Z,99.00
2019-05-03T09:29:17.966Z,98.90
2019-05-03T09:34:25.705Z,99.60
2019-05-03T09:39:35.313Z,98.40
2019-05-03T09:44:41.433Z,98.60
2019-05-03T09:49:47.610Z,98.80
2019-05-03T09:54:55.257Z,99.10
2019-05-03T10:00:01.424Z,99.30
2019-05-03T10:05:07.968Z,99.60
2019-05-03T10:10:15.414Z,99.60
2019-05-03T10:15:41.758Z,99.70
2019-05-03T10:20:47.517Z,99.90
2019-05-03T10:25:55.212Z,99.80
2019-05-03T10:31:01.715Z,99.70
2019-05-03T10:36:07.895Z,99.80
2019-05-03T10:41:14.008Z,99.80
2019-05-03T10:46:20.039Z,99.70
2019-05-03T10:51:28.452Z,99.30
2019-05-03T10:56:49.131Z,99.30
2019-05-03T11:02:05.274Z,98.90
2019-05-03T11:07:11.321Z,99.00
2019-05-03T11:12:17.255Z,98.70
2019-05-03T11:17:25.497Z,98.40
2019-05-03T11:22:30.958Z,98.10
2019-05-03T11:27:51.627Z,97.90
2019-05-03T11:33:02.375Z,97.60
2019-05-03T11:38:34.995Z,97.40
2019-05-03T11:43:42.030Z,97.30
2019-05-03T11:48:48.237Z,97.20
2019-05-03T11:53:54.334Z,96.80
2019-05-03T11:59:00.398Z,96.70
2019-05-03T12:04:06.323Z,96.70
2019-05-03T12:09:15.450Z,96.50
2019-05-03T12:14:20.964Z,96.10
2019-05-03T12:19:31.181Z,95.60
2019-05-03T12:24:36.432Z,95.50
2019-05-03T12:29:44.755Z,94.90
2019-05-03T12:34:50.397Z,94.80
2019-05-03T12:39:56.367Z,94.50
2019-05-03T12:45:04.586Z,94.90
2019-05-03T12:50:10.822Z,94.60
2019-05-03T12:55:17.029Z,94.30
2019-05-03T13:00:42.093Z,94.20
2019-05-03T13:05:48.038Z,93.80
2019-05-03T13:10:55.725Z,93.60
2019-05-03T13:16:01.956Z,93.40
2019-05-03T13:21:07.939Z,93.60
2019-05-03T13:26:14.802Z,93.60
2019-05-03T13:31:21.030Z,93.50
2019-05-03T13:36:27.101Z,93.20
2019-05-03T13:41:34.942Z,93.20
2019-05-03T13:46:41.059Z,92.80
2019-05-03T13:51:47.042Z,92.20
2019-05-03T13:56:55.071Z,91.00
2019-05-03T14:02:12.508Z,91.10
2019-05-03T14:07:08.875Z,90.80
2019-05-03T14:12:15.522Z,90.30
2019-05-03T14:17:21.846Z,90.30
2019-05-03T14:22:29.602Z,88.20
2019-05-03T14:27:35.722Z,89.70
2019-05-03T14:32:41.605Z,90.00
2019-05-03T14:37:47.457Z,89.90
2019-05-03T14:42:55.300Z,89.40
2019-05-03T14:48:01.059Z,90.00
2019-05-03T14:53:07.113Z,89.00
2019-05-03T14:58:30.774Z,90.30
2019-05-03T15:03:36.490Z,91.10
2019-05-03T15:08:42.373Z,92.00
2019-05-03T15:13:48.545Z,93.00
2019-05-03T15:18:54.936Z,93.50
2019-05-03T15:24:01.016Z,94.00
2019-05-03T15:29:07.901Z,94.20
2019-05-03T15:34:15.275Z,94.00
2019-05-03T15:39:21.695Z,93.80
2019-05-03T15:44:35.566Z,93.90
2019-05-03T15:49:44.681Z,93.50
2019-05-03T15:54:49.018Z,93.20
2019-05-03T15:59:55.263Z,92.60
2019-05-03T16:05:01.189Z,92.60
2019-05-03T16:10:07.460Z,92.30
2019-05-03T16:15:13.738Z,92.20
2019-05-03T16:20:20.042Z,91.40
2019-05-03T16:25:26.346Z,91.40
2019-05-03T16:30:50.510Z,91.30
2019-05-03T16:35:56.626Z,91.10
2019-05-03T16:41:02.743Z,91.30
2019-05-03T16:46:08.661Z,91.10
2019-05-03T16:51:17.144Z,91.00
2019-05-03T16:56:24.353Z,91.30
2019-05-03T17:01:30.202Z,90.80
2019-05-03T17:06:55.291Z,93.00
2019-05-03T17:12:17.065Z,94.40
2019-05-03T17:17:25.091Z,95.40
2019-05-03T17:22:30.540Z,95.60
2019-05-03T17:27:36.500Z,95.90
2019-05-03T17:32:44.448Z,96.20
2019-05-03T17:37:50.322Z,96.30
2019-05-03T17:43:01.458Z,96.40
2019-05-03T17:48:07.341Z,96.60
2019-05-03T17:53:47.565Z,96.90
2019-05-03T17:59:05.811Z,97.40
2019-05-03T18:04:19.256Z,97.70
2019-05-03T18:09:29.482Z,97.70
2019-05-03T18:14:38.413Z,97.80
2019-05-03T18:19:44.809Z,97.90
2019-05-03T18:24:51.331Z,98.00
2019-05-03T18:29:57.389Z,98.10
2019-05-03T18:35:04.845Z,98.10
2019-05-03T18:40:11.349Z,98.40
2019-05-03T18:45:22.863Z,99.90
2019-05-03T18:50:29.039Z,99.90
2019-05-03T18:55:34.848Z,99.90
2019-05-03T19:00:40.953Z,99.90
2019-05-03T19:05:48.395Z,99.90
2019-05-03T19:10:58.474Z,99.90
2019-05-03T19:16:15.261Z,99.90
2019-05-03T19:21:21.073Z,99.90
2019-05-03T19:26:28.060Z,99.80
2019-05-03T19:31:35.590Z,99.50
2019-05-03T19:36:41.804Z,99.80
2019-05-03T19:41:47.871Z,99.80
2019-05-03T19:46:55.280Z,99.90
2019-05-03T19:52:01.140Z,99.90
2019-05-03T19:57:07.123Z,99.90
2019-05-03T20:02:21.149Z,99.90
2019-05-03T20:07:42.896Z,99.90
2019-05-03T20:12:48.779Z,99.90
2019-05-03T20:17:59.843Z,99.90
2019-05-03T20:23:02.115Z,99.90
2019-05-03T20:28:08.980Z,99.90
2019-05-03T20:33:15.041Z,99.90
2019-05-03T20:38:22.289Z,99.90
2019-05-03T20:44:02.651Z,99.80
2019-05-03T20:49:10.750Z,99.80
2019-05-03T20:54:16.812Z,99.70
2019-05-03T20:59:22.786Z,99.90
2019-05-03T21:04:28.665Z,99.90
2019-05-03T21:09:34.742Z,99.80
2019-05-03T21:14:40.412Z,99.80
2019-05-03T21:19:57.806Z,99.80
2019-05-03T21:25:26.889Z,99.50
2019-05-03T21:30:32.991Z,99.00
2019-05-03T21:35:42.013Z,98.50
2019-05-03T21:40:48.385Z,98.00
2019-05-03T21:46:04.510Z,97.60
2019-05-03T21:51:10.465Z,97.50
2019-05-03T21:56:16.553Z,97.30
2019-05-03T22:01:22.745Z,96.90
2019-05-03T22:06:28.694Z,96.70
2019-05-03T22:11:34.666Z,96.30
2019-05-03T22:16:52.469Z,96.20
2019-05-03T22:22:20.310Z,96.30
2019-05-03T22:27:28.994Z,96.20
2019-05-03T22:32:35.706Z,96.10
2019-05-03T22:37:41.737Z,95.40
2019-05-03T22:42:47.929Z,94.90
2019-05-03T22:47:54.973Z,95.40
2019-05-03T22:53:01.365Z,95.60
2019-05-03T22:58:07.500Z,95.70
2019-05-03T23:03:14.493Z,95.70
2019-05-03T23:08:20.501Z,95.60
2019-05-03T23:13:26.401Z,95.70
2019-05-03T23:18:32.466Z,95.50
2019-05-03T23:23:54.866Z,95.70
2019-05-03T23:29:01.100Z,95.70
2019-05-03T23:34:07.316Z,95.60
2019-05-03T23:39:14.485Z,95.40
2019-05-03T23:44:20.342Z,95.20
2019-05-03T23:49:26.226Z,94.80
2019-05-03T23:54:32.182Z,94.60
2019-05-03T23:59:38.082Z,94.40
